createdAt,value
2018-12-03T00:01:52.268Z,1.10
2018-12-03T00:04:21.716Z,1.10
2018-12-03T00:06:49.858Z,0.80
2018-12-03T00:09:18.146Z,1.23
2018-12-03T00:11:46.284Z,1.00
2018-12-03T00:14:14.401Z,0.80
2018-12-03T00:16:42.686Z,0.90
2018-12-03T00:19:10.836Z,1.00
2018-12-03T00:21:38.979Z,0.70
2018-12-03T00:24:07.354Z,1.20
2018-12-03T00:26:35.487Z,1.13
2018-12-03T00:29:03.824Z,1.10
2018-12-03T00:31:31.937Z,1.03
2018-12-03T00:34:00.020Z,0.77
2018-12-03T00:36:28.133Z,0.90
2018-12-03T00:38:56.244Z,1.10
2018-12-03T00:41:24.299Z,0.83
2018-12-03T00:43:52.369Z,1.37
2018-12-03T00:46:20.481Z,1.10
2018-12-03T00:48:48.612Z,0.73
2018-12-03T00:51:16.701Z,0.97
2018-12-03T00:53:44.753Z,1.03
2018-12-03T00:56:12.845Z,0.80
2018-12-03T00:58:40.933Z,1.00
2018-12-03T01:01:08.998Z,0.87
2018-12-03T01:03:37.093Z,0.77
2018-12-03T01:06:06.167Z,0.80
2018-12-03T01:08:34.324Z,1.50
2018-12-03T01:11:02.400Z,1.10
2018-12-03T01:13:30.453Z,1.03
2018-12-03T01:15:58.513Z,0.80
2018-12-03T01:18:26.617Z,1.13
2018-12-03T01:20:54.660Z,0.97
2018-12-03T01:23:22.765Z,1.17
2018-12-03T01:25:50.856Z,1.00
2018-12-03T01:28:18.915Z,1.17
2018-12-03T01:30:47.013Z,1.00
2018-12-03T01:33:15.083Z,1.40
2018-12-03T01:35:43.149Z,1.43
2018-12-03T01:38:11.205Z,1.50
2018-12-03T01:40:40.112Z,1.20
2018-12-03T01:43:08.155Z,0.93
2018-12-03T01:45:36.220Z,0.93
2018-12-03T01:48:04.285Z,0.90
2018-12-03T01:50:32.331Z,0.97
2018-12-03T01:53:00.510Z,0.90
2018-12-03T01:55:28.616Z,0.90
2018-12-03T01:57:56.716Z,0.83
2018-12-03T02:00:24.774Z,1.00
2018-12-03T02:02:52.819Z,1.17
2018-12-03T02:05:20.888Z,1.07
2018-12-03T02:07:48.980Z,1.03
2018-12-03T02:10:17.076Z,1.10
2018-12-03T02:12:45.367Z,1.00
2018-12-03T02:15:15.240Z,0.87
2018-12-03T02:17:43.581Z,1.27
2018-12-03T02:20:14.456Z,0.90
2018-12-03T02:22:42.533Z,1.10
2018-12-03T02:25:11.100Z,1.43
2018-12-03T02:27:39.196Z,1.10
2018-12-03T02:30:11.037Z,1.03
2018-12-03T02:32:39.204Z,1.20
2018-12-03T02:35:08.889Z,1.07
2018-12-03T02:37:36.996Z,0.77
2018-12-03T02:40:09.176Z,0.87
2018-12-03T02:42:37.220Z,1.23
2018-12-03T02:45:07.378Z,1.10
2018-12-03T02:47:35.473Z,0.97
2018-12-03T02:50:04.258Z,1.30
2018-12-03T02:52:32.343Z,1.20
2018-12-03T02:55:00.461Z,0.90
2018-12-03T02:57:28.509Z,0.93
2018-12-03T02:59:56.614Z,1.20
2018-12-03T03:02:24.696Z,1.13
2018-12-03T03:04:52.798Z,1.00
2018-12-03T03:07:20.833Z,1.10
2018-12-03T03:09:48.902Z,0.80
2018-12-03T03:12:17.019Z,1.10
2018-12-03T03:14:45.096Z,1.13
2018-12-03T03:17:13.193Z,0.83
2018-12-03T03:19:41.247Z,0.80
2018-12-03T03:22:09.302Z,1.03
2018-12-03T03:24:37.352Z,1.00
2018-12-03T03:27:05.436Z,0.90
2018-12-03T03:29:33.512Z,1.00
2018-12-03T03:32:01.618Z,0.90
2018-12-03T03:34:29.669Z,1.50
2018-12-03T03:36:57.722Z,1.10
2018-12-03T03:39:25.892Z,1.07
2018-12-03T03:41:53.950Z,1.20
2018-12-03T03:44:22.040Z,1.50
2018-12-03T03:46:50.110Z,1.20
2018-12-03T03:49:18.204Z,1.40
2018-12-03T03:51:46.249Z,1.10
2018-12-03T03:54:14.322Z,1.07
2018-12-03T03:56:42.529Z,0.90
2018-12-03T03:59:10.699Z,0.97
2018-12-03T04:01:39.256Z,1.03
2018-12-03T04:04:07.391Z,1.10
2018-12-03T04:06:35.440Z,1.20
2018-12-03T04:09:04.708Z,1.23
2018-12-03T04:11:32.800Z,1.10
2018-12-03T04:14:00.852Z,1.17
2018-12-03T04:16:29.149Z,1.00
2018-12-03T04:18:57.277Z,1.30
2018-12-03T04:21:25.381Z,1.43
2018-12-03T04:23:53.469Z,0.90
2018-12-03T04:26:21.523Z,1.23
2018-12-03T04:28:49.640Z,1.27
2018-12-03T04:31:17.731Z,1.23
2018-12-03T04:33:45.797Z,1.30
2018-12-03T04:36:13.869Z,0.80
2018-12-03T04:38:41.933Z,1.37
2018-12-03T04:41:09.996Z,1.00
2018-12-03T04:43:38.073Z,1.10
2018-12-03T04:46:06.210Z,1.03
2018-12-03T04:48:34.308Z,1.20
2018-12-03T04:51:02.392Z,1.43
2018-12-03T04:53:30.437Z,1.40
2018-12-03T04:55:58.565Z,1.47
2018-12-03T04:58:26.568Z,1.30
2018-12-03T05:00:54.665Z,1.30
2018-12-03T05:03:22.716Z,1.00
2018-12-03T05:05:50.810Z,0.80
2018-12-03T05:08:18.909Z,1.07
2018-12-03T05:10:47.018Z,1.13
2018-12-03T05:13:15.347Z,1.40
2018-12-03T05:15:43.664Z,1.40
2018-12-03T05:18:11.741Z,1.07
2018-12-03T05:20:39.819Z,1.10
2018-12-03T05:23:07.925Z,1.10
2018-12-03T05:25:35.992Z,1.20
2018-12-03T05:28:04.088Z,1.33
2018-12-03T05:30:32.200Z,0.93
2018-12-03T05:33:00.308Z,1.10
2018-12-03T05:35:29.395Z,1.20
2018-12-03T05:37:57.791Z,1.00
2018-12-03T05:40:27.512Z,1.13
2018-12-03T05:42:55.638Z,1.47
2018-12-03T05:45:23.709Z,0.87
2018-12-03T05:47:52.036Z,1.40
2018-12-03T05:50:20.151Z,1.40
2018-12-03T05:52:48.540Z,1.30
2018-12-03T05:55:16.748Z,1.93
2018-12-03T05:57:45.434Z,1.70
2018-12-03T06:00:16.508Z,1.50
2018-12-03T06:02:44.614Z,1.63
2018-12-03T06:05:13.353Z,1.80
2018-12-03T06:07:41.429Z,1.83
2018-12-03T06:10:11.640Z,1.47
2018-12-03T06:12:39.692Z,1.73
2018-12-03T06:15:11.100Z,1.70
2018-12-03T06:17:39.367Z,2.10
2018-12-03T06:20:09.165Z,1.40
2018-12-03T06:22:37.278Z,1.93
2018-12-03T06:25:07.657Z,1.40
2018-12-03T06:27:35.702Z,1.70
2018-12-03T06:30:03.942Z,1.53
2018-12-03T06:32:32.128Z,1.77
2018-12-03T06:35:00.217Z,2.37
2018-12-03T06:37:28.272Z,1.90
2018-12-03T06:39:56.327Z,1.70
2018-12-03T06:42:24.384Z,1.77
2018-12-03T06:44:52.473Z,1.50
2018-12-03T06:47:20.605Z,2.37
2018-12-03T06:49:48.704Z,2.10
2018-12-03T06:52:16.810Z,1.97
2018-12-03T06:54:45.303Z,2.13
2018-12-03T06:57:13.372Z,1.97
2018-12-03T06:59:41.432Z,1.70
2018-12-03T07:02:09.532Z,2.20
2018-12-03T07:04:37.669Z,2.63
2018-12-03T07:07:05.785Z,2.13
2018-12-03T07:09:34.320Z,2.00
2018-12-03T07:12:02.553Z,2.27
2018-12-03T07:14:30.632Z,2.13
2018-12-03T07:16:58.736Z,2.27
2018-12-03T07:19:26.865Z,2.33
2018-12-03T07:21:55.185Z,2.00
2018-12-03T07:24:23.276Z,2.00
2018-12-03T07:26:51.399Z,2.00
2018-12-03T07:29:19.453Z,2.13
2018-12-03T07:31:47.568Z,2.20
2018-12-03T07:34:15.640Z,2.00
2018-12-03T07:36:43.747Z,2.10
2018-12-03T07:39:11.878Z,2.07
2018-12-03T07:41:39.976Z,2.37
2018-12-03T07:44:08.077Z,2.33
2018-12-03T07:46:36.220Z,2.37
2018-12-03T07:49:04.279Z,2.20
2018-12-03T07:51:32.406Z,2.70
2018-12-03T07:54:00.477Z,2.27
2018-12-03T07:56:28.570Z,2.10
2018-12-03T07:58:56.653Z,2.20
2018-12-03T08:01:24.929Z,2.00
2018-12-03T08:03:53.208Z,2.80
2018-12-03T08:06:21.977Z,2.33
2018-12-03T08:08:50.213Z,2.30
2018-12-03T08:11:18.308Z,2.80
2018-12-03T08:13:46.417Z,2.20
2018-12-03T08:16:14.545Z,2.23
2018-12-03T08:18:42.684Z,2.43
2018-12-03T08:21:10.786Z,2.23
2018-12-03T08:23:43.356Z,2.47
2018-12-03T08:26:11.773Z,2.27
2018-12-03T08:28:39.968Z,2.40
2018-12-03T08:31:08.134Z,2.63
2018-12-03T08:33:36.225Z,2.20
2018-12-03T08:36:04.465Z,2.50
2018-12-03T08:38:32.666Z,1.73
2018-12-03T08:41:06.153Z,2.20
2018-12-03T08:43:34.258Z,1.93
2018-12-03T08:46:03.953Z,1.80
2018-12-03T08:48:37.377Z,2.17
2018-12-03T08:51:06.004Z,2.63
2018-12-03T08:53:34.105Z,2.73
2018-12-03T08:56:02.232Z,2.47
2018-12-03T08:58:31.497Z,3.17
2018-12-03T09:00:59.886Z,2.60
2018-12-03T09:03:29.713Z,2.70
2018-12-03T09:05:58.605Z,3.30
2018-12-03T09:08:28.013Z,2.87
2018-12-03T09:10:56.562Z,3.57
2018-12-03T09:13:24.901Z,3.23
2018-12-03T09:15:57.265Z,3.17
2018-12-03T09:18:30.733Z,3.27
2018-12-03T09:20:59.254Z,3.97
2018-12-03T09:23:28.711Z,3.70
2018-12-03T09:25:56.812Z,3.10
2018-12-03T09:28:27.922Z,4.43
2018-12-03T09:30:58.438Z,4.20
2018-12-03T09:33:26.817Z,4.63
2018-12-03T09:35:54.993Z,4.33
2018-12-03T09:38:23.229Z,3.43
2018-12-03T09:40:54.246Z,4.87
2018-12-03T09:43:23.690Z,4.67
2018-12-03T09:48:42.908Z,4.00
2018-12-03T09:51:11.133Z,4.40
2018-12-03T09:53:39.477Z,3.53
2018-12-03T09:56:19.210Z,4.07
2018-12-03T09:58:48.713Z,5.00
2018-12-03T10:04:47.829Z,3.10
2018-12-03T10:07:54.290Z,3.90
2018-12-03T10:10:23.499Z,2.93
2018-12-03T10:12:53.487Z,3.47
2018-12-03T10:15:26.830Z,3.33
2018-12-03T10:17:56.591Z,2.97
2018-12-03T10:20:29.071Z,2.90
2018-12-03T10:23:08.057Z,3.23
2018-12-03T10:25:35.295Z,3.20
2018-12-03T10:28:06.837Z,2.80
2018-12-03T10:30:34.981Z,3.30
2018-12-03T10:33:03.078Z,2.97
2018-12-03T10:35:36.623Z,3.13
2018-12-03T10:38:10.649Z,2.20
2018-12-03T10:40:42.771Z,3.17
2018-12-03T10:43:11.885Z,2.30
2018-12-03T10:45:40.036Z,3.00
2018-12-03T10:48:08.164Z,3.70
2018-12-03T10:50:36.278Z,2.60
2018-12-03T10:53:04.677Z,2.67
2018-12-03T10:55:32.877Z,3.40
2018-12-03T10:58:01.054Z,2.90
2018-12-03T11:00:34.728Z,2.57
2018-12-03T11:03:07.077Z,2.87
2018-12-03T11:05:40.748Z,2.97
2018-12-03T11:08:08.824Z,3.10
2018-12-03T11:10:38.479Z,2.73
2018-12-03T11:13:06.625Z,2.47
2018-12-03T11:15:34.729Z,2.83
2018-12-03T11:18:04.007Z,3.00
2018-12-03T11:20:32.253Z,2.57
2018-12-03T11:23:00.356Z,2.60
2018-12-03T11:25:34.357Z,2.10
2018-12-03T11:28:03.989Z,2.60
2018-12-03T11:30:32.513Z,2.40
2018-12-03T11:33:05.522Z,2.20
2018-12-03T11:35:33.612Z,2.23
2018-12-03T11:38:08.929Z,2.30
2018-12-03T11:40:49.386Z,3.30
2018-12-03T11:43:17.701Z,2.63
2018-12-03T11:45:45.767Z,2.83
2018-12-03T11:48:13.849Z,3.00
2018-12-03T11:50:42.018Z,2.37
2018-12-03T11:53:10.172Z,2.27
2018-12-03T11:55:38.316Z,2.40
2018-12-03T11:58:06.467Z,2.50
2018-12-03T12:00:34.541Z,2.17
2018-12-03T12:03:02.690Z,2.10
2018-12-03T12:05:30.803Z,2.50
2018-12-03T12:07:58.904Z,2.67
2018-12-03T12:10:27.336Z,3.07
2018-12-03T12:12:55.526Z,2.23
2018-12-03T12:15:23.617Z,2.37
2018-12-03T12:17:51.713Z,2.50
2018-12-03T12:20:19.798Z,2.23
2018-12-03T12:22:47.930Z,2.80
2018-12-03T12:25:15.995Z,2.50
2018-12-03T12:27:46.712Z,2.17
2018-12-03T12:30:15.625Z,2.63
2018-12-03T12:32:43.751Z,2.73
2018-12-03T12:35:11.924Z,2.67
2018-12-03T12:37:40.104Z,2.70
2018-12-03T12:40:10.798Z,2.07
2018-12-03T12:42:39.325Z,2.73
2018-12-03T12:45:14.768Z,2.17
2018-12-03T12:47:43.057Z,2.37
2018-12-03T12:50:13.214Z,2.70
2018-12-03T12:52:41.312Z,2.47
2018-12-03T12:55:09.403Z,2.20
2018-12-03T12:57:37.478Z,2.57
2018-12-03T13:00:10.996Z,2.17
2018-12-03T13:02:39.080Z,2.30
2018-12-03T13:05:07.148Z,2.50
2018-12-03T13:07:35.319Z,2.77
2018-12-03T13:10:03.913Z,2.07
2018-12-03T13:12:31.977Z,2.10
2018-12-03T13:15:00.083Z,1.80
2018-12-03T13:17:28.262Z,1.70
2018-12-03T13:19:56.353Z,2.30
2018-12-03T13:22:33.573Z,1.70
2018-12-03T13:25:01.725Z,1.67
2018-12-03T13:27:29.833Z,1.87
2018-12-03T13:29:57.977Z,2.50
2018-12-03T13:32:26.056Z,2.33
2018-12-03T13:34:54.221Z,2.20
2018-12-03T13:37:22.333Z,2.27
2018-12-03T13:39:50.498Z,1.53
2018-12-03T13:42:18.872Z,2.03
2018-12-03T13:44:47.019Z,2.20
2018-12-03T13:47:15.201Z,2.17
2018-12-03T13:49:43.489Z,2.10
2018-12-03T13:52:11.837Z,2.23
2018-12-03T13:54:40.035Z,1.83
2018-12-03T14:00:39.911Z,1.80
2018-12-03T14:03:12.677Z,2.33
2018-12-03T14:05:49.472Z,2.13
2018-12-03T14:18:49.729Z,1.60
2018-12-03T14:21:21.250Z,1.60
2018-12-03T14:23:52.051Z,1.23
2018-12-03T14:26:20.426Z,1.80
2018-12-03T14:28:49.036Z,2.63
2018-12-03T14:31:17.564Z,1.93
2018-12-03T14:33:46.723Z,1.97
2018-12-03T14:36:28.088Z,2.07
2018-12-03T14:38:57.031Z,2.00
2018-12-03T14:41:52.562Z,1.63
2018-12-03T14:44:21.867Z,2.03
2018-12-03T14:47:03.496Z,1.50
2018-12-03T14:49:45.019Z,2.20
2018-12-03T14:52:27.473Z,2.00
2018-12-03T14:55:09.100Z,2.20
2018-12-03T14:57:50.736Z,1.67
2018-12-03T15:00:32.667Z,1.60
2018-12-03T15:03:13.950Z,1.60
2018-12-03T15:05:55.494Z,1.83
2018-12-03T15:08:37.838Z,1.50
2018-12-03T15:11:18.928Z,1.30
2018-12-03T15:13:51.744Z,1.30
2018-12-03T15:16:24.117Z,1.80
2018-12-03T15:19:11.454Z,1.50
2018-12-03T15:21:49.604Z,1.37
2018-12-03T15:24:18.064Z,1.67
2018-12-03T15:26:58.990Z,2.07
2018-12-03T15:29:53.405Z,1.93
2018-12-03T15:32:35.007Z,1.50
2018-12-03T15:35:42.519Z,1.63
2018-12-03T15:38:24.794Z,1.17
2018-12-03T15:41:32.359Z,1.57
2018-12-03T15:47:49.453Z,1.20
2018-12-03T15:50:44.702Z,1.20
2018-12-03T15:53:26.223Z,1.57
2018-12-03T15:55:58.750Z,1.50
2018-12-03T15:58:41.383Z,2.27
2018-12-03T16:01:22.986Z,1.53
2018-12-03T16:04:04.246Z,1.77
2018-12-03T16:06:46.676Z,2.23
2018-12-03T16:09:27.591Z,1.73
2018-12-03T16:11:59.454Z,1.90
2018-12-03T16:14:40.938Z,1.43
2018-12-03T16:17:22.717Z,1.50
2018-12-03T16:20:04.791Z,1.07
2018-12-03T16:22:47.618Z,1.40
2018-12-03T16:25:19.485Z,1.50
2018-12-03T16:28:00.794Z,1.07
2018-12-03T16:30:42.440Z,2.10
2018-12-03T16:33:25.078Z,1.77
2018-12-03T16:36:05.878Z,1.00
2018-12-03T16:39:14.169Z,2.13
2018-12-03T16:41:43.563Z,1.40
2018-12-03T16:44:14.144Z,1.50
2018-12-03T16:46:42.517Z,1.50
2018-12-03T16:49:10.947Z,1.80
2018-12-03T16:51:40.498Z,1.50
2018-12-03T16:54:08.871Z,1.53
2018-12-03T16:56:37.332Z,1.60
2018-12-03T16:59:05.807Z,1.17
2018-12-03T17:01:34.291Z,1.57
2018-12-03T17:04:03.056Z,1.30
2018-12-03T17:06:33.021Z,1.60
2018-12-03T17:09:01.776Z,1.63
2018-12-03T17:11:30.518Z,1.47
2018-12-03T17:13:58.954Z,1.50
2018-12-03T17:16:27.322Z,1.33
2018-12-03T17:18:56.154Z,1.63
2018-12-03T17:21:33.798Z,1.60
2018-12-03T17:24:09.066Z,1.57
2018-12-03T17:26:37.509Z,1.53
2018-12-03T17:29:05.982Z,1.73
2018-12-03T17:31:34.693Z,1.50
2018-12-03T17:34:04.184Z,1.73
2018-12-03T17:36:32.679Z,1.60
2018-12-03T17:39:01.064Z,1.43
2018-12-03T17:41:31.033Z,1.37
2018-12-03T17:44:00.418Z,1.43
2018-12-03T17:46:28.814Z,1.50
2018-12-03T17:48:57.362Z,1.60
2018-12-03T17:51:26.402Z,1.60
2018-12-03T17:53:54.903Z,1.40
2018-12-03T17:56:23.334Z,1.73
2018-12-03T17:58:51.775Z,1.67
2018-12-03T18:01:20.146Z,1.67
2018-12-03T18:03:53.649Z,1.70
2018-12-03T18:06:23.157Z,1.60
2018-12-03T18:08:52.122Z,1.67
2018-12-03T18:11:20.490Z,1.63
2018-12-03T18:13:48.863Z,1.30
2018-12-03T18:16:20.758Z,1.60
2018-12-03T18:18:51.019Z,1.77
2018-12-03T18:21:19.511Z,1.67
2018-12-03T18:23:47.886Z,1.30
2018-12-03T18:26:16.266Z,2.07
2018-12-03T18:28:44.634Z,1.50
2018-12-03T18:31:13.115Z,1.87
2018-12-03T18:33:42.629Z,1.20
2018-12-03T18:39:33.186Z,2.07
2018-12-03T18:42:05.541Z,1.40
2018-12-03T18:44:47.087Z,1.77
2018-12-03T18:47:28.081Z,1.50
2018-12-03T18:49:59.344Z,1.80
2018-12-03T18:52:28.361Z,1.77
2018-12-03T18:54:56.746Z,1.63
2018-12-03T18:57:25.121Z,1.83
2018-12-03T18:59:53.497Z,1.60
2018-12-03T19:02:21.864Z,1.23
2018-12-03T19:04:51.065Z,1.70
2018-12-03T19:07:20.377Z,1.93
2018-12-03T19:09:48.757Z,1.93
2018-12-03T19:12:17.154Z,1.23
2018-12-03T19:14:45.554Z,1.83
2018-12-03T19:17:15.050Z,1.30
2018-12-03T19:19:43.461Z,1.40
2018-12-03T19:22:11.861Z,1.23
2018-12-03T19:24:40.269Z,1.93
2018-12-03T19:27:08.657Z,1.67
2018-12-03T19:29:38.972Z,1.90
2018-12-03T19:32:07.667Z,1.40
2018-12-03T19:34:36.843Z,1.30
2018-12-03T19:37:05.213Z,1.57
2018-12-03T19:39:36.232Z,1.77
2018-12-03T19:42:04.620Z,1.43
2018-12-03T19:44:35.041Z,1.50
2018-12-03T19:47:03.430Z,1.53
2018-12-03T19:49:31.805Z,1.33
2018-12-03T19:52:02.296Z,1.33
2018-12-03T19:54:30.733Z,1.50
2018-12-03T19:57:00.630Z,1.40
2018-12-03T19:59:32.561Z,1.30
2018-12-03T20:02:01.003Z,1.57
2018-12-03T20:04:37.395Z,1.50
2018-12-03T20:07:06.932Z,1.40
2018-12-03T20:09:35.436Z,1.23
2018-12-03T20:12:04.162Z,1.30
2018-12-03T20:14:33.297Z,1.50
2018-12-03T20:17:02.565Z,1.93
2018-12-03T20:19:30.929Z,2.47
2018-12-03T20:21:59.585Z,2.93
2018-12-03T20:24:28.384Z,3.57
2018-12-03T20:27:05.546Z,3.03
2018-12-03T20:29:39.277Z,2.93
2018-12-03T20:33:16.436Z,2.87
2018-12-03T20:36:56.750Z,2.97
2018-12-03T20:39:44.714Z,2.10
2018-12-03T20:42:29.617Z,2.57
2018-12-03T20:45:23.649Z,2.63
2018-12-03T20:48:04.889Z,1.90
2018-12-03T20:51:00.059Z,2.43
2018-12-03T20:53:43.083Z,2.20
2018-12-03T20:56:15.462Z,2.60
2018-12-03T20:58:56.582Z,2.50
2018-12-03T21:01:40.018Z,2.67
2018-12-03T21:09:37.309Z,2.00
2018-12-03T21:15:40.611Z,1.90
2018-12-03T21:18:09.826Z,1.53
2018-12-03T21:20:42.738Z,1.57
2018-12-03T21:23:23.819Z,1.73
2018-12-03T21:26:31.371Z,1.60
2018-12-03T21:28:59.938Z,1.73
2018-12-03T21:31:31.743Z,2.10
2018-12-03T21:34:00.787Z,1.63
2018-12-03T21:36:29.197Z,1.03
2018-12-03T21:39:14.537Z,1.60
2018-12-03T21:41:47.983Z,1.77
2018-12-03T21:44:31.417Z,1.07
2018-12-03T21:46:59.963Z,1.70
2018-12-03T21:49:29.457Z,1.40
2018-12-03T21:51:58.785Z,1.83
2018-12-03T21:54:27.131Z,1.40
2018-12-03T21:56:55.789Z,1.10
2018-12-03T21:59:24.165Z,1.10
2018-12-03T22:01:52.532Z,1.50
2018-12-03T22:04:20.999Z,1.23
2018-12-03T22:06:51.110Z,1.37
2018-12-03T22:09:20.131Z,1.60
2018-12-03T22:11:48.500Z,1.10
2018-12-03T22:14:16.861Z,1.20
2018-12-03T22:16:45.281Z,1.47
2018-12-03T22:19:13.659Z,1.40
2018-12-03T22:21:42.254Z,1.47
2018-12-03T22:24:10.667Z,1.00
2018-12-03T22:26:39.870Z,1.50
2018-12-03T22:29:08.238Z,0.93
2018-12-03T22:31:36.690Z,1.43
2018-12-03T22:34:05.711Z,1.50
2018-12-03T22:36:35.127Z,0.80
2018-12-03T22:39:05.749Z,1.30
2018-12-03T22:41:35.554Z,1.37
2018-12-03T22:44:04.851Z,1.17
2018-12-03T22:46:34.361Z,1.07
2018-12-03T22:49:02.725Z,1.37
2018-12-03T22:51:31.099Z,1.20
2018-12-03T22:53:59.540Z,0.80
2018-12-03T22:56:28.496Z,0.90
2018-12-03T22:58:56.887Z,1.00
2018-12-03T23:01:25.234Z,0.80
2018-12-03T23:03:53.625Z,0.87
2018-12-03T23:06:22.983Z,0.70
2018-12-03T23:08:53.446Z,0.83
2018-12-03T23:11:21.810Z,0.83
2018-12-03T23:13:50.183Z,0.80
2018-12-03T23:16:18.558Z,0.80
2018-12-03T23:18:47.565Z,1.23
2018-12-03T23:21:15.986Z,1.00
2018-12-03T23:23:46.208Z,1.50
2018-12-03T23:26:14.569Z,1.00
2018-12-03T23:28:42.930Z,0.80
2018-12-03T23:31:11.366Z,0.60
2018-12-03T23:33:40.768Z,0.90
2018-12-03T23:36:09.104Z,0.97
2018-12-03T23:38:37.470Z,0.93
2018-12-03T23:41:06.653Z,0.60
2018-12-03T23:43:35.830Z,1.03
2018-12-03T23:46:05.427Z,0.67
2018-12-03T23:48:33.796Z,1.10
2018-12-03T23:51:02.263Z,0.90
2018-12-03T23:53:30.710Z,0.77
2018-12-03T23:55:59.093Z,0.90
2018-12-03T23:58:27.561Z,0.73
